createdAt,value
2018-05-26T00:01:47.264Z,72.85
2018-05-26T00:04:17.213Z,72.71
2018-05-26T00:06:48.619Z,72.53
2018-05-26T00:09:20.269Z,72.79
2018-05-26T00:11:54.499Z,73.40
2018-05-26T00:14:26.080Z,73.78
2018-05-26T00:16:57.350Z,74.48
2018-05-26T00:19:30.129Z,75.08
2018-05-26T00:22:00.315Z,74.96
2018-05-26T00:24:34.646Z,75.27
2018-05-26T00:27:06.147Z,75.85
2018-05-26T00:29:37.609Z,76.35
2018-05-26T00:32:10.763Z,76.35
2018-05-26T00:34:42.208Z,76.02
2018-05-26T00:37:15.181Z,75.76
2018-05-26T00:39:49.561Z,75.90
2018-05-26T00:42:22.526Z,75.91
2018-05-26T00:44:55.407Z,76.22
2018-05-26T00:47:27.119Z,76.22
2018-05-26T00:50:00.500Z,76.55
2018-05-26T00:52:30.400Z,76.94
2018-05-26T00:55:01.842Z,77.04
2018-05-26T00:57:34.686Z,77.25
2018-05-26T01:00:06.389Z,77.47
2018-05-26T01:02:39.329Z,77.48
2018-05-26T01:05:12.216Z,77.62
2018-05-26T01:07:46.621Z,77.69
2018-05-26T01:10:17.608Z,77.50
2018-05-26T01:12:50.881Z,76.64
2018-05-26T01:15:23.203Z,76.04
2018-05-26T01:17:57.600Z,75.91
2018-05-26T01:20:31.759Z,76.17
2018-05-26T01:23:01.830Z,77.39
2018-05-26T01:25:34.775Z,77.36
2018-05-26T01:28:07.615Z,77.25
2018-05-26T01:30:40.713Z,77.32
2018-05-26T01:33:12.702Z,77.36
2018-05-26T01:35:44.401Z,77.01
2018-05-26T01:38:15.880Z,77.08
2018-05-26T01:40:47.285Z,77.13
2018-05-26T01:43:19.126Z,76.86
2018-05-26T01:45:51.263Z,77.20
2018-05-26T01:48:22.549Z,77.37
2018-05-26T01:50:53.349Z,77.42
2018-05-26T01:53:26.224Z,77.86
2018-05-26T01:55:57.866Z,77.55
2018-05-26T01:58:29.306Z,77.73
2018-05-26T02:01:03.570Z,77.28
2018-05-26T02:03:36.555Z,76.81
2018-05-26T02:06:09.479Z,76.87
2018-05-26T02:08:42.357Z,76.70
2018-05-26T02:11:15.754Z,76.53
2018-05-26T02:13:47.732Z,76.63
2018-05-26T02:16:19.233Z,76.99
2018-05-26T02:18:52.161Z,76.82
2018-05-26T02:21:26.240Z,77.44
2018-05-26T02:24:00.829Z,76.96
2018-05-26T02:26:30.748Z,76.82
2018-05-26T02:29:02.224Z,76.90
2018-05-26T02:31:33.967Z,76.94
2018-05-26T02:34:05.769Z,77.36
2018-05-26T02:36:38.794Z,77.06
2018-05-26T02:39:13.128Z,76.96
2018-05-26T02:41:46.421Z,76.99
2018-05-26T02:44:19.472Z,77.06
2018-05-26T02:46:54.248Z,77.00
2018-05-26T02:49:24.878Z,77.05
2018-05-26T02:51:55.300Z,77.19
2018-05-26T02:54:26.738Z,77.40
2018-05-26T02:56:57.982Z,77.60
2018-05-26T02:59:29.464Z,77.26
2018-05-26T03:02:02.268Z,77.20
2018-05-26T03:04:51.394Z,78.50
2018-05-26T03:07:39.037Z,78.37
2018-05-26T03:10:28.710Z,79.23
2018-05-26T03:13:16.794Z,79.69
2018-05-26T03:15:52.056Z,79.68
2018-05-26T03:18:25.047Z,79.37
2018-05-26T03:20:56.404Z,78.98
2018-05-26T03:23:29.362Z,79.03
2018-05-26T03:26:02.329Z,78.71
2018-05-26T03:28:34.382Z,78.46
2018-05-26T03:31:07.194Z,78.47
2018-05-26T03:33:40.559Z,78.20
2018-05-26T03:36:12.450Z,77.45
2018-05-26T03:38:45.618Z,76.89
2018-05-26T03:41:18.461Z,76.75
2018-05-26T03:43:49.143Z,76.74
2018-05-26T03:46:21.448Z,76.66
2018-05-26T03:48:56.048Z,75.97
2018-05-26T03:51:28.459Z,75.35
2018-05-26T03:54:01.240Z,74.56
2018-05-26T03:57:09.080Z,73.90
2018-05-26T04:00:14.991Z,74.15
2018-05-26T04:02:46.423Z,74.72
2018-05-26T04:05:17.828Z,74.87
2018-05-26T04:07:47.762Z,74.94
2018-05-26T04:10:19.270Z,74.48
2018-05-26T04:12:49.888Z,73.24
2018-05-26T04:15:22.712Z,73.00
2018-05-26T04:17:54.667Z,72.54
2018-05-26T04:20:27.534Z,72.31
2018-05-26T04:23:01.050Z,71.58
2018-05-26T04:25:32.853Z,70.75
2018-05-26T04:28:04.779Z,70.20
2018-05-26T04:30:35.723Z,68.31
2018-05-26T04:33:08.543Z,67.91
2018-05-26T04:35:42.826Z,67.19
2018-05-26T04:38:14.935Z,65.96
2018-05-26T04:40:46.989Z,65.10
2018-05-26T04:43:18.342Z,64.61
2018-05-26T04:45:49.798Z,63.96
2018-05-26T04:48:22.954Z,63.37
2018-05-26T04:50:54.264Z,63.68
2018-05-26T04:53:28.760Z,62.64
2018-05-26T04:55:59.381Z,61.91
2018-05-26T04:58:32.728Z,60.85
2018-05-26T05:01:04.000Z,60.71
2018-05-26T05:03:38.406Z,59.61
2018-05-26T05:06:11.285Z,59.16
2018-05-26T05:08:45.512Z,58.41
2018-05-26T05:11:18.343Z,57.91
2018-05-26T05:13:52.589Z,58.09
2018-05-26T05:16:22.509Z,58.01
2018-05-26T05:18:56.892Z,59.38
2018-05-26T05:21:31.209Z,57.14
2018-05-26T05:24:01.142Z,56.54
2018-05-26T05:26:31.675Z,56.89
2018-05-26T05:29:03.153Z,57.17
2018-05-26T05:31:34.795Z,57.88
2018-05-26T05:34:09.042Z,55.27
2018-05-26T05:36:40.708Z,55.28
2018-05-26T05:39:10.722Z,52.97
2018-05-26T05:41:43.190Z,55.77
2018-05-26T05:44:14.544Z,53.16
2018-05-26T05:46:45.890Z,51.29
2018-05-26T05:49:16.571Z,51.80
2018-05-26T05:51:49.766Z,51.01
2018-05-26T05:54:22.742Z,52.27
2018-05-26T05:56:54.186Z,50.63
2018-05-26T05:59:27.085Z,50.59
2018-05-26T06:01:58.495Z,51.67
2018-05-26T06:04:30.061Z,52.32
2018-05-26T06:06:59.940Z,50.76
2018-05-26T06:09:32.710Z,51.60
2018-05-26T06:12:03.531Z,50.60
2018-05-26T06:14:37.243Z,50.07
2018-05-26T06:17:11.542Z,49.57
2018-05-26T06:19:45.229Z,50.54
2018-05-26T06:22:18.172Z,49.12
2018-05-26T06:24:51.845Z,49.54
2018-05-26T06:27:26.880Z,49.25
2018-05-26T06:29:58.199Z,47.57
2018-05-26T06:32:32.030Z,49.38
2018-05-26T06:35:05.222Z,51.21
2018-05-26T06:37:35.051Z,47.24
2018-05-26T06:40:08.495Z,46.29
2018-05-26T06:42:39.487Z,44.93
2018-05-26T06:45:11.566Z,47.82
2018-05-26T06:47:45.127Z,44.93
2018-05-26T06:50:15.558Z,44.18
2018-05-26T06:52:44.866Z,45.33
2018-05-26T06:55:16.193Z,43.94
2018-05-26T06:57:45.259Z,43.43
2018-05-26T07:00:18.096Z,45.65
2018-05-26T07:02:50.964Z,42.25
2018-05-26T07:05:23.828Z,42.16
2018-05-26T07:07:55.180Z,41.32
2018-05-26T07:10:27.586Z,42.10
2018-05-26T07:13:00.307Z,42.90
2018-05-26T07:15:30.147Z,43.30
2018-05-26T07:18:00.379Z,40.94
2018-05-26T07:20:35.580Z,41.49
2018-05-26T07:23:06.172Z,40.65
2018-05-26T07:25:37.500Z,40.00
2018-05-26T07:28:08.984Z,39.51
2018-05-26T07:30:43.297Z,42.71
2018-05-26T07:33:16.074Z,40.81
2018-05-26T07:35:45.950Z,40.02
2018-05-26T07:38:19.875Z,41.10
2018-05-26T07:40:50.939Z,39.47
2018-05-26T07:43:23.798Z,40.14
2018-05-26T07:45:55.234Z,37.43
2018-05-26T07:48:25.948Z,39.03
2018-05-26T07:50:57.323Z,41.09
2018-05-26T07:53:30.067Z,43.72
2018-05-26T07:56:01.893Z,40.70
2018-05-26T07:58:34.867Z,38.45
2018-05-26T08:01:07.595Z,39.74
2018-05-26T08:03:38.157Z,38.39
2018-05-26T08:06:09.519Z,39.92
2018-05-26T08:08:40.859Z,38.59
2018-05-26T08:11:15.263Z,36.87
2018-05-26T08:13:48.113Z,38.75
2018-05-26T08:16:17.985Z,37.65
2018-05-26T08:18:49.048Z,36.93
2018-05-26T08:21:21.744Z,37.52
2018-05-26T08:23:54.703Z,36.59
2018-05-26T08:26:24.512Z,38.77
2018-05-26T08:28:54.943Z,36.97
2018-05-26T08:31:27.995Z,37.80
2018-05-26T08:34:00.782Z,37.24
2018-05-26T08:36:31.352Z,37.35
2018-05-26T08:39:03.615Z,37.24
2018-05-26T08:41:35.736Z,37.34
2018-05-26T08:44:09.923Z,36.14
2018-05-26T08:46:44.257Z,38.17
2018-05-26T08:49:17.010Z,39.87
2018-05-26T08:51:50.229Z,36.76
2018-05-26T08:54:21.711Z,38.53
2018-05-26T08:56:53.020Z,37.49
2018-05-26T08:59:25.223Z,39.02
2018-05-26T09:01:55.068Z,37.38
2018-05-26T09:04:27.984Z,37.48
2018-05-26T09:06:59.578Z,37.69
2018-05-26T09:09:31.918Z,40.08
2018-05-26T09:12:03.258Z,36.35
2018-05-26T09:14:37.138Z,38.26
2018-05-26T09:17:06.931Z,37.48
2018-05-26T09:19:37.261Z,36.98
2018-05-26T09:22:10.922Z,37.51
2018-05-26T09:24:44.681Z,38.71
2018-05-26T09:27:17.645Z,37.76
2018-05-26T09:29:51.235Z,36.18
2018-05-26T09:32:22.646Z,39.86
2018-05-26T09:34:54.464Z,39.34
2018-05-26T09:37:26.000Z,39.39
2018-05-26T09:39:58.918Z,36.66
2018-05-26T09:42:28.900Z,38.18
2018-05-26T09:45:01.054Z,37.82
2018-05-26T09:47:33.836Z,38.51
2018-05-26T09:50:04.181Z,39.48
2018-05-26T09:52:37.811Z,38.98
2018-05-26T09:55:09.904Z,37.23
2018-05-26T09:57:41.155Z,38.92
2018-05-26T10:00:15.442Z,38.22
2018-05-26T10:02:48.336Z,38.30
2018-05-26T10:05:19.664Z,37.85
2018-05-26T10:07:52.582Z,36.89
2018-05-26T10:10:23.436Z,37.09
2018-05-26T10:12:53.828Z,40.53
2018-05-26T10:15:28.118Z,37.47
2018-05-26T10:17:59.445Z,38.44
2018-05-26T10:20:32.428Z,36.95
2018-05-26T10:23:06.708Z,38.36
2018-05-26T10:25:40.962Z,37.26
2018-05-26T10:28:12.855Z,37.89
2018-05-26T10:30:43.516Z,37.91
2018-05-26T10:33:16.258Z,39.74
2018-05-26T10:35:47.574Z,36.90
2018-05-26T10:38:19.621Z,37.79
2018-05-26T10:40:52.501Z,38.49
2018-05-26T10:43:23.894Z,38.04
2018-05-26T10:46:29.224Z,36.37
2018-05-26T10:49:01.957Z,37.55
2018-05-26T10:51:32.342Z,38.72
2018-05-26T10:54:04.201Z,37.45
2018-05-26T10:56:37.038Z,38.43
2018-05-26T10:59:09.975Z,41.36
2018-05-26T11:01:43.214Z,36.96
2018-05-26T11:04:16.782Z,39.21
2018-05-26T11:06:52.500Z,36.29
2018-05-26T11:09:23.959Z,37.91
2018-05-26T11:11:55.252Z,37.52
2018-05-26T11:14:28.167Z,37.36
2018-05-26T11:17:00.919Z,37.88
2018-05-26T11:19:31.537Z,35.74
2018-05-26T11:22:04.403Z,37.53
2018-05-26T11:24:35.845Z,36.08
2018-05-26T11:27:08.627Z,36.19
2018-05-26T11:29:42.920Z,40.29
2018-05-26T11:32:14.231Z,40.02
2018-05-26T11:34:48.148Z,41.14
2018-05-26T11:37:19.527Z,37.66
2018-05-26T11:39:51.357Z,36.30
2018-05-26T11:42:24.209Z,37.36
2018-05-26T11:44:57.085Z,37.00
2018-05-26T11:47:27.308Z,38.69
2018-05-26T11:50:00.588Z,39.67
2018-05-26T11:52:32.025Z,40.12
2018-05-26T11:55:03.394Z,39.47
2018-05-26T11:57:34.677Z,41.29
2018-05-26T12:00:06.089Z,37.16
2018-05-26T12:02:37.609Z,40.69
2018-05-26T12:05:08.074Z,37.52
2018-05-26T12:07:39.443Z,38.73
2018-05-26T12:10:12.182Z,38.09
2018-05-26T12:12:46.420Z,40.04
2018-05-26T12:15:16.333Z,37.17
2018-05-26T12:17:47.653Z,36.54
2018-05-26T12:20:20.491Z,38.80
2018-05-26T12:22:53.552Z,39.95
2018-05-26T12:25:26.574Z,37.99
2018-05-26T12:27:56.369Z,37.49
2018-05-26T12:30:30.657Z,37.79
2018-05-26T12:33:02.486Z,41.43
2018-05-26T12:35:36.924Z,37.81
2018-05-26T12:38:11.194Z,39.76
2018-05-26T12:40:40.460Z,39.96
2018-05-26T12:43:13.473Z,40.43
2018-05-26T12:45:46.412Z,39.52
2018-05-26T12:48:19.219Z,38.29
2018-05-26T12:50:50.517Z,40.08
2018-05-26T12:53:20.421Z,38.88
2018-05-26T12:55:50.809Z,38.42
2018-05-26T12:58:23.693Z,40.01
2018-05-26T13:00:54.525Z,40.31
2018-05-26T13:03:27.236Z,41.25
2018-05-26T13:05:59.193Z,37.19
2018-05-26T13:08:31.804Z,40.01
2018-05-26T13:11:03.117Z,37.31
2018-05-26T13:13:36.595Z,38.41
2018-05-26T13:16:08.806Z,39.40
2018-05-26T13:18:39.472Z,38.71
2018-05-26T13:21:13.697Z,36.50
2018-05-26T13:23:47.959Z,39.37
2018-05-26T13:26:18.433Z,36.52
2018-05-26T13:28:51.870Z,38.74
2018-05-26T13:31:22.603Z,40.38
2018-05-26T13:33:56.853Z,37.45
2018-05-26T13:36:29.662Z,35.77
2018-05-26T13:39:02.523Z,35.23
2018-05-26T13:41:34.782Z,38.23
2018-05-26T13:44:05.362Z,38.10
2018-05-26T13:46:38.109Z,37.54
2018-05-26T13:49:11.131Z,38.55
2018-05-26T13:51:41.613Z,38.18
2018-05-26T13:54:12.947Z,37.10
2018-05-26T13:56:47.414Z,39.40
2018-05-26T13:59:21.762Z,36.68
2018-05-26T14:01:53.118Z,37.01
2018-05-26T14:04:27.481Z,35.78
2018-05-26T14:06:59.769Z,38.90
2018-05-26T14:09:32.534Z,35.44
2018-05-26T14:12:04.293Z,34.64
2018-05-26T14:14:36.277Z,36.71
2018-05-26T14:17:09.187Z,35.73
2018-05-26T14:19:41.650Z,37.12
2018-05-26T14:22:14.499Z,36.12
2018-05-26T14:24:45.777Z,35.02
2018-05-26T14:27:18.632Z,36.67
2018-05-26T14:29:50.879Z,34.64
2018-05-26T14:32:22.448Z,35.69
2018-05-26T14:34:55.061Z,34.90
2018-05-26T14:37:29.405Z,35.82
2018-05-26T14:40:03.671Z,38.22
2018-05-26T14:42:38.038Z,34.51
2018-05-26T14:45:12.345Z,37.47
2018-05-26T14:47:45.171Z,35.68
2018-05-26T14:50:18.500Z,34.41
2018-05-26T14:52:48.294Z,34.45
2018-05-26T14:55:21.179Z,36.43
2018-05-26T14:57:53.948Z,34.58
2018-05-26T15:00:26.766Z,34.48
2018-05-26T15:02:59.641Z,35.35
2018-05-26T15:05:33.809Z,34.20
2018-05-26T15:08:06.843Z,34.77
2018-05-26T15:10:40.153Z,34.06
2018-05-26T15:13:13.088Z,34.60
2018-05-26T15:15:47.325Z,35.15
2018-05-26T15:18:20.625Z,35.46
2018-05-26T15:20:52.459Z,35.96
2018-05-26T15:23:25.101Z,34.82
2018-05-26T15:25:58.151Z,35.90
2018-05-26T15:28:29.014Z,36.14
2018-05-26T15:31:00.922Z,37.92
2018-05-26T15:33:33.846Z,35.17
2018-05-26T15:36:06.658Z,36.75
2018-05-26T15:38:38.650Z,36.23
2018-05-26T15:41:11.443Z,33.41
2018-05-26T15:43:43.270Z,35.45
2018-05-26T15:46:14.623Z,35.43
2018-05-26T15:48:45.650Z,34.20
2018-05-26T15:51:16.984Z,34.74
2018-05-26T15:53:51.205Z,36.18
2018-05-26T15:56:25.670Z,37.44
2018-05-26T15:58:59.423Z,35.62
2018-05-26T16:01:29.222Z,35.67
2018-05-26T16:04:02.033Z,35.19
2018-05-26T16:06:32.025Z,35.75
2018-05-26T16:09:04.428Z,35.33
2018-05-26T16:11:38.890Z,34.60
2018-05-26T16:14:11.567Z,35.78
2018-05-26T16:16:44.199Z,34.20
2018-05-26T16:19:16.502Z,34.90
2018-05-26T16:21:49.341Z,35.63
2018-05-26T16:24:23.439Z,35.25
2018-05-26T16:26:56.261Z,35.10
2018-05-26T16:29:29.139Z,37.08
2018-05-26T16:32:03.561Z,34.83
2018-05-26T16:34:37.388Z,36.34
2018-05-26T16:37:11.746Z,35.13
2018-05-26T16:39:41.618Z,35.84
2018-05-26T16:42:14.635Z,35.73
2018-05-26T16:44:45.792Z,35.16
2018-05-26T16:47:19.275Z,35.72
2018-05-26T16:49:48.336Z,34.14
2018-05-26T16:52:20.979Z,35.20
2018-05-26T16:54:53.880Z,35.32
2018-05-26T16:57:25.317Z,34.95
2018-05-26T16:59:58.210Z,34.86
2018-05-26T17:02:28.287Z,35.47
2018-05-26T17:04:59.610Z,36.83
2018-05-26T17:07:30.930Z,36.20
2018-05-26T17:10:03.386Z,35.60
2018-05-26T17:12:36.314Z,36.78
2018-05-26T17:15:07.621Z,37.02
2018-05-26T17:17:39.824Z,37.76
2018-05-26T17:20:12.631Z,36.57
2018-05-26T17:22:45.964Z,36.89
2018-05-26T17:25:19.481Z,37.26
2018-05-26T17:27:50.902Z,37.10
2018-05-26T17:30:24.134Z,37.49
2018-05-26T17:32:56.004Z,37.50
2018-05-26T17:35:30.690Z,38.32
2018-05-26T17:38:02.702Z,37.64
2018-05-26T17:40:34.181Z,38.55
2018-05-26T17:43:04.877Z,39.07
2018-05-26T17:45:36.305Z,38.02
2018-05-26T17:48:05.424Z,38.35
2018-05-26T17:50:38.358Z,37.24
2018-05-26T17:53:07.652Z,38.71
2018-05-26T17:55:42.137Z,38.57
2018-05-26T17:58:15.536Z,38.54
2018-05-26T18:00:49.742Z,39.15
2018-05-26T18:03:23.934Z,39.33
2018-05-26T18:05:56.670Z,38.42
2018-05-26T18:08:27.968Z,39.87
2018-05-26T18:11:02.190Z,39.81
2018-05-26T18:13:32.228Z,37.62
2018-05-26T18:16:02.746Z,37.84
2018-05-26T18:18:35.617Z,38.39
2018-05-26T18:21:06.939Z,37.57
2018-05-26T18:23:37.837Z,38.31
2018-05-26T18:26:10.741Z,37.79
2018-05-26T18:28:43.652Z,38.16
2018-05-26T18:31:15.030Z,37.87
2018-05-26T18:33:49.345Z,38.39
2018-05-26T18:36:19.194Z,38.56
2018-05-26T18:38:49.768Z,37.39
2018-05-26T18:41:22.818Z,38.39
2018-05-26T18:43:54.949Z,37.24
2018-05-26T18:46:27.785Z,36.86
2018-05-26T18:49:02.352Z,37.51
2018-05-26T18:51:34.704Z,37.36
2018-05-26T18:54:08.511Z,37.73
2018-05-26T18:56:38.478Z,38.02
2018-05-26T18:59:12.378Z,37.57
2018-05-26T19:01:45.653Z,37.76
2018-05-26T19:04:20.124Z,37.87
2018-05-26T19:06:51.577Z,38.11
2018-05-26T19:09:21.698Z,38.09
2018-05-26T19:11:53.044Z,38.17
2018-05-26T19:14:23.472Z,39.08
2018-05-26T19:16:57.955Z,38.49
2018-05-26T19:19:31.211Z,37.67
2018-05-26T19:22:02.174Z,38.44
2018-05-26T19:24:32.017Z,38.39
2018-05-26T19:27:02.688Z,38.64
2018-05-26T19:29:34.601Z,38.04
2018-05-26T19:32:06.259Z,38.50
2018-05-26T19:34:38.034Z,38.79
2018-05-26T19:37:13.461Z,39.36
2018-05-26T19:39:44.898Z,40.19
2018-05-26T19:42:16.320Z,39.66
2018-05-26T19:44:47.696Z,39.27
2018-05-26T19:47:22.059Z,39.75
2018-05-26T19:49:53.077Z,40.73
2018-05-26T19:52:28.057Z,40.63
2018-05-26T19:55:02.581Z,40.84
2018-05-26T19:57:34.270Z,41.03
2018-05-26T20:00:07.369Z,40.94
2018-05-26T20:02:38.838Z,41.23
2018-05-26T20:05:10.513Z,41.09
2018-05-26T20:07:44.139Z,41.54
2018-05-26T20:10:17.695Z,41.62
2018-05-26T20:12:48.770Z,41.88
2018-05-26T20:15:21.030Z,42.47
2018-05-26T20:17:52.497Z,42.96
2018-05-26T20:20:24.350Z,43.37
2018-05-26T20:22:57.170Z,42.67
2018-05-26T20:25:30.676Z,42.58
2018-05-26T20:28:03.617Z,43.10
2018-05-26T20:30:33.523Z,43.00
2018-05-26T20:33:06.344Z,43.03
2018-05-26T20:35:38.626Z,43.27
2018-05-26T20:38:10.463Z,43.09
2018-05-26T20:40:42.516Z,42.91
2018-05-26T20:43:12.459Z,43.75
2018-05-26T20:45:44.366Z,43.70
2018-05-26T20:48:14.353Z,43.61
2018-05-26T20:50:46.139Z,44.30
2018-05-26T20:53:17.642Z,44.40
2018-05-26T20:55:47.494Z,44.20
2018-05-26T20:58:20.308Z,44.71
2018-05-26T21:00:50.189Z,45.33
2018-05-26T21:03:21.504Z,44.89
2018-05-26T21:05:54.318Z,45.33
2018-05-26T21:08:27.502Z,45.31
2018-05-26T21:11:00.318Z,45.63
2018-05-26T21:13:30.213Z,46.41
2018-05-26T21:16:04.438Z,46.10
2018-05-26T21:18:34.830Z,46.87
2018-05-26T21:21:07.637Z,47.10
2018-05-26T21:23:39.718Z,47.31
2018-05-26T21:26:13.184Z,47.60
2018-05-26T21:28:45.933Z,47.38
2018-05-26T21:31:19.886Z,47.70
2018-05-26T21:33:50.714Z,48.17
2018-05-26T21:36:25.149Z,47.79
2018-05-26T21:38:58.223Z,47.71
2018-05-26T21:41:29.538Z,47.79
2018-05-26T21:44:00.933Z,47.71
2018-05-26T21:46:33.757Z,47.89
2018-05-26T21:49:05.368Z,48.13
2018-05-26T21:51:38.664Z,48.12
2018-05-26T21:54:10.198Z,47.81
2018-05-26T21:56:42.312Z,47.34
2018-05-26T21:59:16.451Z,47.87
2018-05-26T22:01:47.880Z,47.70
2018-05-26T22:04:17.750Z,48.14
2018-05-26T22:06:50.628Z,48.17
2018-05-26T22:09:22.036Z,48.14
2018-05-26T22:11:55.764Z,48.12
2018-05-26T22:14:27.375Z,48.66
2018-05-26T22:16:59.639Z,48.99
2018-05-26T22:19:33.908Z,49.07
2018-05-26T22:22:06.647Z,51.53
2018-05-26T22:24:38.099Z,52.10
2018-05-26T22:27:11.302Z,53.13
2018-05-26T22:29:41.253Z,54.22
2018-05-26T22:32:15.594Z,54.24
2018-05-26T22:34:50.479Z,52.90
2018-05-26T22:37:21.802Z,53.32
2018-05-26T22:39:53.397Z,52.78
2018-05-26T22:42:22.675Z,52.79
2018-05-26T22:44:55.474Z,52.58
2018-05-26T22:47:25.383Z,51.33
2018-05-26T22:49:55.868Z,53.34
2018-05-26T22:52:27.448Z,52.88
2018-05-26T22:54:59.309Z,52.42
2018-05-26T22:57:32.289Z,52.12
2018-05-26T23:00:02.369Z,52.26
2018-05-26T23:02:33.890Z,52.03
2018-05-26T23:05:04.023Z,51.52
2018-05-26T23:07:37.000Z,51.56
2018-05-26T23:10:09.641Z,51.69
2018-05-26T23:12:42.792Z,50.94
2018-05-26T23:15:14.244Z,50.94
2018-05-26T23:17:47.826Z,50.41
2018-05-26T23:20:19.299Z,49.25
2018-05-26T23:22:52.291Z,50.32
2018-05-26T23:25:23.769Z,49.67
2018-05-26T23:27:56.772Z,48.64
2018-05-26T23:30:31.280Z,47.97
2018-05-26T23:33:04.000Z,48.80
2018-05-26T23:35:35.442Z,48.84
2018-05-26T23:38:06.847Z,48.48
2018-05-26T23:40:39.182Z,48.96
2018-05-26T23:43:10.608Z,48.57
2018-05-26T23:45:42.051Z,48.95
2018-05-26T23:48:16.360Z,48.49
2018-05-26T23:50:49.226Z,48.96
2018-05-26T23:53:22.170Z,48.82
2018-05-26T23:55:53.461Z,49.03
2018-05-26T23:58:24.855Z,49.22
